Time;durP1;ratioP1;P1;durP2;ratioP2;P2;SDS_P1;SDS_P2;PMS_P1;PMS_P2;Temp;Humidity;BMP_temperature;BMP_pressure;BME280_temperature;BME280_humidity;BME280_pressure;Samples;Min_cycle;Max_cycle;Signal;HPM_P1;HPM_P2
2022/08/03 00:01:39;;;;;;;5.43;1.30;;;18.10;99.90;;;;;;6182213;23;20016;-84
2022/08/03 00:04:06;;;;;;;5.40;1.00;;;18.10;99.90;;;;;;6183162;23;20012;-84
2022/08/03 00:06:32;;;;;;;7.95;1.33;;;18.10;99.90;;;;;;6183634;23;20087;-84
2022/08/03 00:08:58;;;;;;;3.95;0.98;;;18.10;99.90;;;;;;6181664;23;20044;-84
2022/08/03 00:11:23;;;;;;;3.88;1.00;;;18.10;99.90;;;;;;6209368;23;20067;-84
2022/08/03 00:13:49;;;;;;;7.25;1.40;;;18.10;99.90;;;;;;6182848;23;20087;-82
2022/08/03 00:16:15;;;;;;;4.68;1.35;;;18.10;99.90;;;;;;6181237;23;20019;-83
2022/08/03 00:18:41;;;;;;;4.75;1.45;;;18.10;99.90;;;;;;6180642;23;20473;-83
2022/08/03 00:21:07;;;;;;;9.85;1.40;;;18.20;99.90;;;;;;6182176;23;20401;-84
2022/08/03 00:23:33;;;;;;;9.02;1.85;;;18.40;99.90;;;;;;6182777;23;20365;-84
2022/08/03 00:25:59;;;;;;;8.23;1.60;;;18.40;99.90;;;;;;6181725;23;20677;-84
2022/08/03 00:28:25;;;;;;;4.95;1.05;;;18.50;99.90;;;;;;6182711;23;20103;-84
2022/08/03 00:30:50;;;;;;;6.80;1.17;;;18.50;99.90;;;;;;6207354;23;20020;-81
2022/08/03 00:33:16;;;;;;;8.48;1.50;;;18.60;99.90;;;;;;6182093;23;20017;-84
2022/08/03 00:35:42;;;;;;;10.88;1.02;;;18.60;99.90;;;;;;6207449;23;20013;-84
2022/08/03 00:38:08;;;;;;;4.18;0.95;;;18.60;99.90;;;;;;6183200;23;20666;-83
2022/08/03 00:40:33;;;;;;;6.65;1.35;;;18.60;99.90;;;;;;6181398;23;20048;-84
2022/08/03 00:43:01;;;;;;;7.47;0.70;;;18.30;99.90;;;;;;6182970;23;20374;-82
2022/08/03 00:45:32;;;;;;;7.75;0.75;;;18.60;99.90;;;;;;6182033;23;20091;-82
2022/08/03 00:47:59;;;;;;;4.32;0.88;;;18.50;99.90;;;;;;6182626;23;20074;-82
2022/08/03 00:50:27;;;;;;;2.78;1.25;;;18.50;99.90;;;;;;6182170;23;20472;-84
2022/08/03 00:52:54;;;;;;;4.28;0.90;;;18.40;99.90;;;;;;6156474;23;20024;-81
2022/08/03 00:55:20;;;;;;;2.15;0.70;;;18.40;99.90;;;;;;6180972;23;20016;-83
2022/08/03 00:57:46;;;;;;;7.78;1.60;;;18.40;99.90;;;;;;6182480;23;20016;-84
2022/08/03 01:00:15;;;;;;;4.45;0.80;;;18.40;99.90;;;;;;6180101;23;20055;-84
2022/08/03 01:02:41;;;;;;;6.18;1.00;;;18.40;99.90;;;;;;6182908;23;20381;-83
2022/08/03 01:05:08;;;;;;;5.60;0.93;;;18.40;99.90;;;;;;6182638;23;20087;-84
2022/08/03 01:07:45;;;;;;;10.82;2.08;;;18.40;99.90;;;;;;6180621;23;20024;-82
2022/08/03 01:10:26;;;;;;;6.65;1.15;;;18.40;99.90;;;;;;6180139;23;20095;-83
2022/08/03 01:13:20;;;;;;;7.00;1.33;;;18.40;99.90;;;;;;6182129;23;20096;-82
2022/08/03 01:16:07;;;;;;;6.75;0.80;;;18.50;99.90;;;;;;6180447;23;20464;-83
2022/08/03 01:18:38;;;;;;;8.60;1.20;;;18.40;99.90;;;;;;6181983;23;20426;-83
2022/08/03 01:21:13;;;;;;;5.22;0.70;;;18.50;99.90;;;;;;6156363;23;20048;-83
2022/08/03 01:24:06;;;;;;;2.33;0.60;;;18.40;99.90;;;;;;6181051;23;20040;-83
2022/08/03 01:26:47;;;;;;;5.95;1.00;;;18.30;99.90;;;;;;6180142;23;20582;-83
2022/08/03 01:29:40;;;;;;;4.78;1.25;;;18.30;99.90;;;;;;6181637;23;20160;-84
2022/08/03 01:32:12;;;;;;;5.75;1.25;;;18.30;99.90;;;;;;6209014;23;20070;-84
2022/08/03 01:34:46;;;;;;;3.72;0.77;;;18.30;99.90;;;;;;6181637;23;20016;-83
2022/08/03 01:37:18;;;;;;;4.60;0.85;;;18.20;99.90;;;;;;6208980;23;20028;-83
2022/08/03 01:39:44;;;;;;;8.18;1.27;;;18.10;99.90;;;;;;6180577;23;20020;-84
2022/08/03 01:42:12;;;;;;;8.63;1.45;;;18.30;99.90;;;;;;6209012;23;20008;-84
2022/08/03 01:44:41;;;;;;;7.47;1.58;;;18.00;99.90;;;;;;6157467;23;20012;-83
2022/08/03 01:47:09;;;;;;;7.25;0.98;;;18.00;99.90;;;;;;6182401;23;20070;-83
2022/08/03 01:49:38;;;;;;;5.63;1.15;;;17.90;99.90;;;;;;6179861;23;20482;-83
2022/08/03 01:52:05;;;;;;;3.92;1.23;;;17.90;99.90;;;;;;6181823;23;20464;-84
2022/08/03 01:54:35;;;;;;;4.45;1.73;;;17.80;99.90;;;;;;6180595;23;20047;-83
2022/08/03 01:57:02;;;;;;;4.38;0.90;;;17.80;99.90;;;;;;6181738;23;20725;-83
2022/08/03 01:59:29;;;;;;;9.63;1.38;;;17.80;99.90;;;;;;6180182;23;20031;-83
2022/08/03 02:01:56;;;;;;;5.15;0.70;;;17.80;99.90;;;;;;6180921;23;20027;-84
2022/08/03 02:04:24;;;;;;;4.50;1.50;;;17.80;99.90;;;;;;6181321;23;20092;-81
2022/08/03 02:06:51;;;;;;;6.00;1.30;;;17.70;99.90;;;;;;6209223;23;20083;-83
2022/08/03 02:09:19;;;;;;;6.00;0.73;;;17.70;99.90;;;;;;6180159;23;20354;-84
2022/08/03 02:11:46;;;;;;;6.38;1.10;;;17.70;99.90;;;;;;6179245;23;20428;-83
2022/08/03 02:14:13;;;;;;;3.97;1.40;;;17.70;99.90;;;;;;6181198;23;20017;-84
2022/08/03 02:16:39;;;;;;;3.25;0.90;;;17.70;99.90;;;;;;6156094;23;20040;-84
2022/08/03 02:19:07;;;;;;;4.47;1.30;;;17.70;99.90;;;;;;6156904;23;20065;-84
2022/08/03 02:21:35;;;;;;;7.18;1.85;;;17.80;99.90;;;;;;6156663;23;20062;-83
2022/08/03 02:24:03;;;;;;;3.28;0.98;;;17.80;99.90;;;;;;6180704;23;20031;-83
2022/08/03 02:26:29;;;;;;;7.32;1.73;;;17.80;99.90;;;;;;6181572;23;20016;-83
2022/08/03 02:28:58;;;;;;;6.65;1.52;;;17.90;99.90;;;;;;6154912;23;20055;-83
2022/08/03 02:31:27;;;;;;;7.43;1.70;;;17.90;99.90;;;;;;6182882;23;20349;-83
2022/08/03 02:33:56;;;;;;;8.52;1.60;;;18.00;99.90;;;;;;6184705;23;20027;-83
2022/08/03 02:36:25;;;;;;;8.95;1.58;;;18.10;99.90;;;;;;6183740;23;20345;-83
2022/08/03 02:38:54;;;;;;;4.25;1.60;;;18.30;99.90;;;;;;6183747;23;20363;-83
2022/08/03 02:41:24;;;;;;;10.13;1.55;;;18.20;99.90;;;;;;6183284;23;20098;-83
2022/08/03 02:43:54;;;;;;;7.75;1.88;;;18.20;99.90;;;;;;6209473;23;20071;-83
2022/08/03 02:46:24;;;;;;;10.80;1.80;;;18.20;99.90;;;;;;6183705;23;20016;-83
2022/08/03 02:48:52;;;;;;;10.60;1.77;;;18.20;99.90;;;;;;6182966;23;20461;-83
2022/08/03 02:51:20;;;;;;;10.80;3.13;;;18.20;99.90;;;;;;6183578;23;20045;-83
2022/08/03 02:53:47;;;;;;;5.82;1.48;;;18.30;99.90;;;;;;6184618;23;20020;-83
2022/08/03 02:56:13;;;;;;;9.00;2.38;;;18.30;99.90;;;;;;6208262;23;20021;-84
2022/08/03 02:58:42;;;;;;;6.35;1.80;;;18.30;99.90;;;;;;6182646;23;20056;-81
2022/08/03 03:01:08;;;;;;;6.78;2.58;;;18.30;99.90;;;;;;6181989;23;20047;-83
2022/08/03 03:03:35;;;;;;;11.48;2.75;;;18.30;99.90;;;;;;6183904;23;20027;-83
2022/08/03 03:06:01;;;;;;;7.53;2.78;;;18.30;99.90;;;;;;6210212;23;20039;-83
2022/08/03 03:08:28;;;;;;;15.15;2.17;;;18.30;99.90;;;;;;6183191;23;20028;-83
2022/08/03 03:10:58;;;;;;;9.05;2.30;;;18.30;99.90;;;;;;6181504;23;20361;-82
2022/08/03 03:13:25;;;;;;;7.05;2.22;;;18.30;99.90;;;;;;6183999;23;20659;-84
2022/08/03 03:15:53;;;;;;;6.05;1.83;;;18.30;99.90;;;;;;6182940;23;20075;-83
2022/08/03 03:18:20;;;;;;;7.18;2.58;;;18.20;99.90;;;;;;6210510;23;20517;-82
2022/08/03 03:20:47;;;;;;;5.93;1.80;;;18.30;99.90;;;;;;6181395;23;20104;-83
2022/08/03 03:23:13;;;;;;;7.13;1.92;;;18.20;99.90;;;;;;6183634;23;20208;-83
2022/08/03 03:25:39;;;;;;;10.23;2.15;;;18.20;99.90;;;;;;6183231;23;20473;-84
2022/08/03 03:28:05;;;;;;;8.88;2.10;;;18.20;99.90;;;;;;6183637;23;20013;-83
2022/08/03 03:30:31;;;;;;;5.28;1.67;;;18.20;99.90;;;;;;6179835;23;20021;-83
2022/08/03 03:32:58;;;;;;;5.35;1.70;;;18.20;99.90;;;;;;6183734;23;20057;-82
2022/08/03 03:35:24;;;;;;;4.57;1.30;;;18.20;99.90;;;;;;6183124;23;20088;-83
2022/08/03 03:37:51;;;;;;;7.07;1.75;;;18.20;99.90;;;;;;6183539;23;20132;-83
2022/08/03 03:40:16;;;;;;;5.45;1.83;;;18.20;99.90;;;;;;6180631;23;20020;-84
2022/08/03 03:42:42;;;;;;;8.85;3.08;;;18.20;99.90;;;;;;6205584;23;20081;-84
2022/08/03 03:45:08;;;;;;;9.30;1.90;;;18.30;99.90;;;;;;6157341;23;20012;-84
2022/08/03 03:47:34;;;;;;;5.53;1.90;;;18.20;99.90;;;;;;6184546;23;20013;-84
2022/08/03 03:50:02;;;;;;;7.55;1.88;;;18.30;99.90;;;;;;6181952;23;20096;-84
2022/08/03 03:52:27;;;;;;;4.80;1.27;;;18.30;99.90;;;;;;6209439;23;20760;-83
2022/08/03 03:54:53;;;;;;;6.78;1.70;;;18.40;99.90;;;;;;6180990;23;20024;-83
2022/08/03 03:57:18;;;;;;;6.97;1.50;;;18.30;99.90;;;;;;6183687;23;20031;-83
2022/08/03 03:59:44;;;;;;;6.90;2.22;;;18.30;99.90;;;;;;6208690;23;20019;-83
2022/08/03 04:02:10;;;;;;;8.07;2.00;;;18.20;99.90;;;;;;6208928;23;20069;-82
2022/08/03 04:13:12;;;;;;;6.65;1.92;;;18.20;99.90;;;;;;6182277;23;20028;-83
2022/08/03 04:15:40;;;;;;;6.35;1.40;;;18.20;99.90;;;;;;6206684;23;20143;-84
2022/08/03 04:18:08;;;;;;;10.73;1.75;;;18.20;99.90;;;;;;6182892;23;20028;-84
2022/08/03 04:20:37;;;;;;;8.77;2.47;;;18.20;99.90;;;;;;6180531;23;20640;-85
2022/08/03 04:23:05;;;;;;;7.03;1.95;;;18.30;99.90;;;;;;6182896;23;20112;-83
2022/08/03 04:25:33;;;;;;;6.65;1.80;;;18.30;99.90;;;;;;6180832;23;20016;-82
2022/08/03 04:28:03;;;;;;;7.85;1.85;;;18.30;99.90;;;;;;6182446;23;20461;-83
2022/08/03 04:30:32;;;;;;;6.05;2.20;;;18.40;99.90;;;;;;6180443;23;20162;-83
2022/08/03 04:33:00;;;;;;;4.78;2.17;;;18.50;99.90;;;;;;6209280;23;20091;-82
2022/08/03 04:35:28;;;;;;;8.23;2.15;;;18.40;99.90;;;;;;6208536;23;20013;-83
2022/08/03 04:37:55;;;;;;;9.07;2.28;;;18.50;99.90;;;;;;6182540;23;20028;-85
2022/08/03 04:40:26;;;;;;;8.57;1.95;;;18.60;99.90;;;;;;6157643;23;20492;-84
2022/08/03 04:42:55;;;;;;;9.40;2.30;;;18.50;99.90;;;;;;6183423;23;20048;-84
2022/08/03 04:45:21;;;;;;;8.15;2.00;;;18.50;99.90;;;;;;6181904;23;20040;-85
2022/08/03 04:47:48;;;;;;;8.80;1.90;;;18.60;99.90;;;;;;6182646;23;20040;-84
2022/08/03 04:50:14;;;;;;;9.00;2.97;;;18.80;99.90;;;;;;6180188;23;20048;-84
2022/08/03 04:52:40;;;;;;;9.15;2.90;;;19.00;99.90;;;;;;6183384;23;20092;-84
2022/08/03 04:55:06;;;;;;;7.22;2.38;;;19.10;99.90;;;;;;6183143;23;20091;-83
2022/08/03 04:57:31;;;;;;;7.72;2.28;;;19.30;99.90;;;;;;6182948;23;20544;-82
2022/08/03 04:59:57;;;;;;;12.93;2.45;;;19.40;99.90;;;;;;6180669;23;20567;-82
2022/08/03 05:02:22;;;;;;;12.40;2.92;;;19.50;99.90;;;;;;6182252;23;20055;-83
2022/08/03 05:04:49;;;;;;;6.13;2.03;;;19.60;99.90;;;;;;6182126;23;20021;-84
2022/08/03 05:07:15;;;;;;;5.10;2.20;;;19.70;99.90;;;;;;6182668;23;20012;-83
2022/08/03 05:09:41;;;;;;;10.75;2.55;;;19.70;99.90;;;;;;6208245;23;20024;-84
2022/08/03 05:12:07;;;;;;;9.07;1.88;;;19.70;99.90;;;;;;6182860;23;20021;-83
2022/08/03 05:14:35;;;;;;;12.40;3.30;;;19.80;99.90;;;;;;6182230;23;20092;-83
2022/08/03 05:17:01;;;;;;;8.38;2.17;;;19.80;99.90;;;;;;6181267;23;20103;-83
2022/08/03 05:19:27;;;;;;;13.30;2.47;;;20.10;99.90;;;;;;6181400;23;20568;-82
2022/08/03 05:21:53;;;;;;;9.55;2.00;;;20.50;99.90;;;;;;6209333;23;20028;-84
2022/08/03 05:24:18;;;;;;;7.07;1.60;;;20.90;99.90;;;;;;6183608;23;20354;-82
2022/08/03 05:26:44;;;;;;;9.68;1.85;;;21.60;99.90;;;;;;6183169;23;20020;-84
2022/08/03 05:29:09;;;;;;;9.38;2.20;;;22.90;99.90;;;;;;6182294;23;20020;-83
2022/08/03 05:31:35;;;;;;;9.48;1.92;;;23.80;99.90;;;;;;6181083;23;20023;-82
2022/08/03 05:34:00;;;;;;;9.45;2.13;;;25.00;99.90;;;;;;6210403;23;20012;-82
2022/08/03 05:36:26;;;;;;;7.03;1.38;;;26.30;99.90;;;;;;6183042;23;20020;-84
2022/08/03 05:38:52;;;;;;;8.68;1.60;;;27.70;99.90;;;;;;6182883;23;20400;-85
2022/08/03 05:41:18;;;;;;;12.63;1.98;;;29.00;99.90;;;;;;6181333;23;20021;-84
2022/08/03 05:43:43;;;;;;;9.23;1.83;;;30.00;99.90;;;;;;6182248;23;20116;-83
2022/08/03 05:46:09;;;;;;;9.23;1.80;;;30.00;99.90;;;;;;6182920;23;20515;-84
2022/08/03 05:48:35;;;;;;;6.32;1.60;;;30.10;99.90;;;;;;6181187;23;20776;-85
2022/08/03 05:51:00;;;;;;;9.93;2.03;;;30.50;99.90;;;;;;6209338;23;20488;-84
2022/08/03 05:53:26;;;;;;;8.85;2.08;;;30.60;99.90;;;;;;6182914;23;20012;-83
2022/08/03 05:55:53;;;;;;;6.28;1.70;;;30.30;99.90;;;;;;6208721;23;20110;-84
2022/08/03 05:58:19;;;;;;;6.35;2.17;;;30.20;99.90;;;;;;6182072;23;20504;-84
2022/08/03 06:00:44;;;;;;;9.25;1.85;;;30.70;99.90;;;;;;6179682;23;20017;-85
2022/08/03 06:03:17;;;;;;;10.23;2.53;;;31.20;99.90;;;;;;6182838;23;20520;-84
2022/08/03 06:05:44;;;;;;;8.70;1.50;;;32.30;99.90;;;;;;6182040;23;20684;-87
2022/08/03 06:08:09;;;;;;;9.75;1.65;;;32.80;99.90;;;;;;6185518;23;20354;-86
2022/08/03 06:10:35;;;;;;;6.25;1.58;;;32.70;99.90;;;;;;6182936;23;20020;-86
2022/08/03 06:13:00;;;;;;;8.95;1.95;;;32.80;99.90;;;;;;6184424;23;20023;-84
2022/08/03 06:15:26;;;;;;;14.75;2.38;;;32.40;99.90;;;;;;6184123;23;20020;-85
2022/08/03 06:17:52;;;;;;;8.18;1.65;;;31.50;99.90;;;;;;6210360;23;20077;-82
2022/08/03 06:20:19;;;;;;;15.52;2.47;;;30.60;99.90;;;;;;6183960;23;20021;-85
2022/08/03 06:22:48;;;;;;;13.90;2.92;;;29.90;99.90;;;;;;6185017;23;20040;-86
2022/08/03 06:25:15;;;;;;;9.68;3.10;;;29.30;99.90;;;;;;6184470;23;20353;-86
2022/08/03 06:27:41;;;;;;;13.00;2.75;;;28.80;99.90;;;;;;6184642;23;20047;-86
2022/08/03 06:30:11;;;;;;;11.25;2.35;;;28.40;99.90;;;;;;6181860;23;20020;-85
2022/08/03 06:32:39;;;;;;;11.45;1.77;;;28.10;99.90;;;;;;6159846;23;20012;-82
2022/08/03 06:35:16;;;;;;;12.50;2.80;;;27.80;99.90;;;;;;6185297;23;20373;-87
2022/08/03 06:38:04;;;;;;;19.00;3.05;;;27.50;99.90;;;;;;6161814;23;20024;-86
2022/08/03 06:40:30;;;;;;;13.05;2.67;;;27.30;99.90;;;;;;6157200;23;20350;-83
2022/08/03 06:43:01;;;;;;;11.60;2.33;;;27.00;99.90;;;;;;6209818;23;20016;-86
2022/08/03 06:45:27;;;;;;;12.88;2.25;;;26.80;99.90;;;;;;6158666;23;20017;-85
2022/08/03 06:48:05;;;;;;;16.52;2.60;;;26.70;99.90;;;;;;6211041;23;20012;-85
2022/08/03 06:50:32;;;;;;;9.13;2.60;;;26.60;99.90;;;;;;6183425;23;20028;-85
2022/08/03 06:52:58;;;;;;;14.80;2.88;;;26.40;99.90;;;;;;6184556;23;20042;-85
2022/08/03 06:55:24;;;;;;;6.75;2.10;;;26.30;99.90;;;;;;6209763;23;20079;-85
2022/08/03 06:57:50;;;;;;;11.23;2.30;;;26.10;99.90;;;;;;6183409;23;20071;-85
2022/08/03 07:00:17;;;;;;;12.30;2.30;;;26.00;99.90;;;;;;6156009;23;20050;-85
2022/08/03 07:02:42;;;;;;;15.63;2.28;;;25.90;99.90;;;;;;6182541;23;20021;-83
2022/08/03 07:05:08;;;;;;;9.20;2.10;;;25.80;99.90;;;;;;6208816;23;20512;-84
2022/08/03 07:07:35;;;;;;;11.15;2.33;;;25.90;99.90;;;;;;6182216;23;20016;-84
2022/08/03 07:10:01;;;;;;;13.95;3.22;;;25.80;99.90;;;;;;6181527;23;20031;-83
2022/08/03 07:12:28;;;;;;;10.98;3.58;;;25.70;99.90;;;;;;6184520;23;20048;-84
2022/08/03 07:14:54;;;;;;;10.70;2.47;;;25.90;99.90;;;;;;6182394;23;20445;-84
2022/08/03 07:17:20;;;;;;;17.92;2.80;;;26.00;99.90;;;;;;6183262;23;20146;-84
2022/08/03 07:19:45;;;;;;;11.27;2.47;;;26.00;99.90;;;;;;6180996;23;20758;-82
2022/08/03 07:22:11;;;;;;;13.65;2.75;;;26.00;99.90;;;;;;6158466;23;20024;-83
2022/08/03 07:24:37;;;;;;;10.57;2.05;;;26.10;99.90;;;;;;6182857;23;20082;-83
2022/08/03 07:27:02;;;;;;;17.83;2.88;;;26.30;99.90;;;;;;6183517;23;20024;-83
2022/08/03 07:29:28;;;;;;;13.57;2.75;;;26.30;99.90;;;;;;6156221;23;20026;-85
2022/08/03 07:31:54;;;;;;;8.57;2.35;;;26.30;99.90;;;;;;6184382;23;20020;-83
2022/08/03 07:34:19;;;;;;;16.38;2.83;;;26.30;99.90;;;;;;6183762;23;20009;-85
2022/08/03 07:36:45;;;;;;;11.10;2.75;;;26.50;99.90;;;;;;6180897;23;20016;-84
2022/08/03 07:39:10;;;;;;;12.35;3.03;;;26.70;99.90;;;;;;6184777;23;20031;-85
2022/08/03 07:41:36;;;;;;;14.80;2.92;;;27.00;99.90;;;;;;6181709;23;20441;-82
2022/08/03 07:44:02;;;;;;;11.15;2.80;;;27.00;99.90;;;;;;6183791;23;20024;-85
2022/08/03 07:46:27;;;;;;;16.23;4.18;;;27.10;99.90;;;;;;6180816;23;20015;-85
2022/08/03 07:48:53;;;;;;;11.30;3.28;;;27.20;99.90;;;;;;6180657;23;20947;-85
2022/08/03 07:51:19;;;;;;;11.68;2.00;;;27.30;99.90;;;;;;6182137;23;20055;-83
2022/08/03 07:53:44;;;;;;;19.17;2.80;;;27.40;99.90;;;;;;6183564;23;20089;-84
2022/08/03 07:56:10;;;;;;;14.10;2.80;;;27.60;99.90;;;;;;6183217;23;20066;-86
2022/08/03 07:58:35;;;;;;;12.80;3.20;;;27.70;99.90;;;;;;6180728;23;20028;-84
2022/08/03 08:01:01;;;;;;;9.38;2.63;;;27.80;99.90;;;;;;6181749;23;20105;-83
2022/08/03 08:03:27;;;;;;;11.10;3.17;;;27.90;99.90;;;;;;6159161;23;20023;-82
2022/08/03 08:05:52;;;;;;;12.93;2.92;;;27.90;99.90;;;;;;6180880;23;20027;-84
2022/08/03 08:08:19;;;;;;;10.05;3.20;;;27.90;99.90;;;;;;6180751;23;20008;-84
2022/08/03 08:10:45;;;;;;;12.18;2.85;;;28.00;99.90;;;;;;6182709;23;20477;-84
2022/08/03 08:13:11;;;;;;;11.90;2.92;;;28.20;99.90;;;;;;6183238;23;20059;-83
2022/08/03 08:15:38;;;;;;;14.52;2.90;;;28.30;99.90;;;;;;6210029;23;20434;-84
2022/08/03 08:18:04;;;;;;;19.20;3.00;;;28.50;99.90;;;;;;6160479;23;20345;-81
2022/08/03 08:20:32;;;;;;;17.63;2.65;;;28.60;99.90;;;;;;6184014;23;20024;-82
2022/08/03 08:22:59;;;;;;;21.73;3.28;;;28.60;99.90;;;;;;6155178;23;20040;-80
2022/08/03 08:25:25;;;;;;;11.35;2.60;;;28.60;99.90;;;;;;6204774;23;20012;-83
2022/08/03 08:27:51;;;;;;;10.60;3.08;;;28.50;99.90;;;;;;6210668;23;20020;-83
2022/08/03 08:30:20;;;;;;;15.40;2.53;;;28.50;99.90;;;;;;6182194;23;20071;-83
2022/08/03 08:32:46;;;;;;;10.23;3.03;;;28.50;99.90;;;;;;6184411;23;20032;-83
2022/08/03 08:35:12;;;;;;;13.35;2.92;;;28.70;99.90;;;;;;6208511;23;20566;-83
2022/08/03 08:37:39;;;;;;;9.55;2.35;;;29.00;99.90;;;;;;6181786;23;20044;-84
2022/08/03 08:40:06;;;;;;;11.43;2.38;;;29.30;99.90;;;;;;6182406;23;20028;-81
2022/08/03 08:42:32;;;;;;;12.40;2.65;;;29.30;99.90;;;;;;6183720;23;20066;-83
2022/08/03 08:44:59;;;;;;;12.45;3.03;;;29.50;99.90;;;;;;6183139;23;20009;-84
2022/08/03 08:47:29;;;;;;;10.68;2.45;;;29.40;99.90;;;;;;6182317;23;20306;-83
2022/08/03 08:49:57;;;;;;;7.43;1.95;;;29.50;99.90;;;;;;6181228;23;20023;-82
2022/08/03 08:52:26;;;;;;;14.68;2.30;;;29.50;99.90;;;;;;6183305;23;20095;-83
2022/08/03 08:55:02;;;;;;;16.80;2.85;;;29.60;99.90;;;;;;6181098;23;20021;-81
2022/08/03 08:57:36;;;;;;;13.00;2.00;;;29.70;99.90;;;;;;6184099;23;20031;-83
2022/08/03 09:00:12;;;;;;;12.23;2.40;;;29.80;99.90;;;;;;6183738;23;20027;-83
2022/08/03 09:02:41;;;;;;;14.82;2.35;;;29.80;99.90;;;;;;6211980;23;20039;-82
2022/08/03 09:05:10;;;;;;;11.77;2.65;;;29.80;99.90;;;;;;6187926;23;20036;-82
2022/08/03 09:07:36;;;;;;;15.00;2.47;;;29.90;99.90;;;;;;6187577;23;20044;-82
2022/08/03 09:10:02;;;;;;;13.80;2.40;;;30.00;99.90;;;;;;6184974;23;20044;-83
2022/08/03 09:12:27;;;;;;;20.90;3.35;;;30.20;99.90;;;;;;6212807;23;20012;-81
2022/08/03 09:14:54;;;;;;;10.57;2.47;;;30.10;99.90;;;;;;6155847;23;20361;-84
2022/08/03 09:17:20;;;;;;;14.73;3.10;;;30.10;99.90;;;;;;6181411;23;20013;-82
2022/08/03 09:20:08;;;;;;;12.02;2.75;;;30.10;99.90;;;;;;6180084;23;20029;-84
2022/08/03 09:22:34;;;;;;;10.93;2.40;;;30.20;99.90;;;;;;6182411;23;20055;-83
2022/08/03 09:25:06;;;;;;;9.18;1.80;;;30.30;99.90;;;;;;6179945;23;20118;-84
2022/08/03 09:27:45;;;;;;;18.98;2.60;;;30.20;99.90;;;;;;6181458;23;20070;-84
2022/08/03 09:30:17;;;;;;;16.50;2.72;;;30.30;99.90;;;;;;6178696;23;20318;-84
2022/08/03 09:32:44;;;;;;;13.68;2.15;;;30.40;99.90;;;;;;6181775;23;20012;-84
2022/08/03 09:35:12;;;;;;;7.70;1.90;;;30.30;99.90;;;;;;6183259;23;20016;-84
2022/08/03 09:37:38;;;;;;;11.85;2.60;;;30.40;99.90;;;;;;6208667;23;20095;-84
2022/08/03 09:40:04;;;;;;;10.52;2.00;;;30.50;99.90;;;;;;6206398;23;20016;-84
2022/08/03 09:42:33;;;;;;;9.77;2.08;;;30.50;99.90;;;;;;6184702;23;20437;-85
2022/08/03 09:44:59;;;;;;;12.32;2.83;;;30.60;99.90;;;;;;6184077;23;20350;-83
2022/08/03 09:47:35;;;;;;;10.85;2.88;;;30.40;99.90;;;;;;6182885;23;20013;-82
2022/08/03 09:50:06;;;;;;;11.35;2.22;;;30.40;99.90;;;;;;6181428;23;20036;-85
2022/08/03 09:52:34;;;;;;;18.67;3.50;;;30.20;99.90;;;;;;6181000;23;20019;-84
2022/08/03 09:55:01;;;;;;;11.70;2.53;;;30.30;99.90;;;;;;6207340;23;20377;-83
2022/08/03 09:57:49;;;;;;;10.13;2.33;;;30.40;99.90;;;;;;6181814;23;20025;-87
2022/08/03 10:01:18;;;;;;;11.57;2.60;;;30.40;99.90;;;;;;6188248;23;20038;-86
2022/08/03 10:04:04;;;;;;;11.02;2.15;;;30.40;99.90;;;;;;6062803;23;20022;-86
2022/08/03 10:07:08;;;;;;;8.68;2.60;;;30.40;99.90;;;;;;6062316;23;20078;-85
2022/08/03 10:09:35;;;;;;;13.48;2.65;;;30.40;99.90;;;;;;6127188;23;20501;-85
2022/08/03 10:12:12;;;;;;;10.07;2.25;;;30.30;99.90;;;;;;6127924;23;20076;-85
2022/08/03 10:14:40;;;;;;;9.45;2.92;;;30.40;99.90;;;;;;6177186;23;20096;-85
2022/08/03 10:17:06;;;;;;;11.63;2.78;;;30.50;99.90;;;;;;6175624;23;20021;-87
2022/08/03 10:20:12;;;;;;;12.68;2.15;;;30.40;99.90;;;;;;6176412;23;20020;-87
2022/08/03 10:22:59;;;;;;;8.52;2.10;;;30.40;99.90;;;;;;6036700;23;20022;-87
2022/08/03 10:26:06;;;;;;;19.33;2.88;;;30.40;99.90;;;;;;6017305;23;20015;-87
2022/08/03 10:29:00;;;;;;;11.82;2.10;;;30.60;99.90;;;;;;6146077;23;20542;-86
2022/08/03 10:32:19;;;;;;;14.50;3.35;;;30.60;99.90;;;;;;6179072;23;20079;-87
2022/08/03 10:34:49;;;;;;;12.98;2.97;;;30.70;99.90;;;;;;6178327;23;20024;-86
2022/08/03 10:37:42;;;;;;;12.07;3.33;;;30.80;99.90;;;;;;6154083;23;20039;-86
2022/08/03 10:40:50;;;;;;;13.18;2.88;;;30.60;99.90;;;;;;6179798;23;20021;-87
2022/08/03 10:44:13;;;;;;;13.25;2.80;;;30.60;99.90;;;;;;6181295;23;20020;-87
2022/08/03 10:46:59;;;;;;;11.98;2.78;;;30.60;99.90;;;;;;6129627;23;20020;-86
2022/08/03 10:49:29;;;;;;;14.05;2.75;;;30.40;99.90;;;;;;6177570;23;20021;-85
2022/08/03 10:51:55;;;;;;;9.60;2.60;;;30.20;99.90;;;;;;6155405;23;20009;-86
2022/08/03 10:54:36;;;;;;;10.43;2.28;;;30.10;99.90;;;;;;6131334;23;20017;-86
2022/08/03 10:59:47;;;;;;;12.18;2.90;;;29.90;99.90;;;;;;6181051;23;20341;-86
2022/08/03 11:02:14;;;;;;;15.75;3.28;;;29.80;99.90;;;;;;6130994;23;20092;-86
2022/08/03 11:04:40;;;;;;;13.13;2.97;;;30.10;99.90;;;;;;6155728;23;20842;-86
2022/08/03 11:07:18;;;;;;;20.45;3.25;;;30.20;99.90;;;;;;6155377;23;20013;-86
2022/08/03 11:09:48;;;;;;;12.82;2.75;;;30.40;99.90;;;;;;6154488;23;20092;-86
2022/08/03 11:12:28;;;;;;;8.52;2.10;;;30.60;99.90;;;;;;6155824;23;20079;-87
2022/08/03 11:14:55;;;;;;;18.60;3.65;;;30.80;99.90;;;;;;6156000;23;20013;-85
2022/08/03 11:17:55;;;;;;;13.63;2.42;;;30.80;99.90;;;;;;6155216;23;20059;-87
2022/08/03 11:24:03;;;;;;;12.18;2.65;;;30.60;99.90;;;;;;6181081;23;20058;-87
2022/08/03 11:27:13;;;;;;;15.95;3.25;;;30.70;99.90;;;;;;6153876;23;20446;-87
2022/08/03 11:30:06;;;;;;;15.10;3.38;;;30.80;99.90;;;;;;6150886;23;20021;-84
2022/08/03 11:48:02;;;;;;;18.35;3.30;;;31.40;99.90;;;;;;6056040;23;20030;-85
2022/08/03 11:50:44;;;;;;;10.27;2.83;;;31.50;99.90;;;;;;6034120;23;20069;-86
2022/08/03 11:53:40;;;;;;;15.25;2.88;;;31.50;99.90;;;;;;6035733;23;20061;-86
2022/08/03 11:56:45;;;;;;;27.75;5.15;;;31.60;99.90;;;;;;6054913;23;20364;-88
2022/08/03 11:59:11;;;;;;;11.55;2.55;;;31.40;99.50;;;;;;6034727;23;20082;-85
2022/08/03 12:01:37;;;;;;;13.10;2.63;;;31.30;99.80;;;;;;6058496;23;20026;-84
2022/08/03 12:04:15;;;;;;;12.65;2.90;;;31.40;99.90;;;;;;6164730;23;20062;-84
2022/08/03 12:06:55;;;;;;;14.60;3.50;;;31.40;99.90;;;;;;6153688;23;20017;-84
2022/08/03 12:09:29;;;;;;;15.13;3.85;;;31.30;99.90;;;;;;6176907;23;20347;-83
2022/08/03 12:11:55;;;;;;;14.88;2.63;;;31.20;99.90;;;;;;6153346;23;20067;-83
2022/08/03 12:14:24;;;;;;;15.23;2.80;;;30.90;99.90;;;;;;6152939;23;20052;-86
2022/08/03 12:17:28;;;;;;;15.45;3.78;;;31.10;99.80;;;;;;6154485;23;20020;-85
2022/08/03 12:23:36;;;;;;;12.90;3.00;;;31.10;99.90;;;;;;6181602;23;20071;-83
2022/08/03 12:26:07;;;;;;;18.45;3.40;;;31.20;99.90;;;;;;6179959;23;20020;-82
2022/08/03 12:28:33;;;;;;;13.55;2.60;;;31.30;99.90;;;;;;6182079;23;20075;-82
2022/08/03 12:31:06;;;;;;;15.57;3.00;;;31.30;98.90;;;;;;6154481;23;20009;-82
2022/08/03 12:33:52;;;;;;;16.75;3.72;;;31.30;98.90;;;;;;6154114;23;20013;-81
2022/08/03 12:36:18;;;;;;;12.52;2.42;;;31.40;98.30;;;;;;6154466;23;20354;-82
2022/08/03 12:39:03;;;;;;;17.23;2.47;;;31.30;97.40;;;;;;6152274;23;20031;-83
2022/08/03 12:41:37;;;;;;;19.58;2.45;;;31.40;97.20;;;;;;6176675;23;20015;-84
2022/08/03 12:44:14;;;;;;;14.48;2.58;;;31.00;97.20;;;;;;6153812;23;20477;-84
2022/08/03 12:46:41;;;;;;;11.80;1.90;;;31.30;97.50;;;;;;6153556;23;20044;-83
2022/08/03 12:49:17;;;;;;;11.05;2.13;;;31.40;97.40;;;;;;6150875;23;20031;-84
2022/08/03 12:51:56;;;;;;;12.77;2.30;;;31.30;96.40;;;;;;6176696;23;20017;-84
2022/08/03 12:54:30;;;;;;;18.95;2.15;;;31.20;96.00;;;;;;6176486;23;20017;-84
2022/08/03 12:57:09;;;;;;;9.93;2.05;;;31.30;97.10;;;;;;6152018;23;20017;-84
2022/08/03 13:03:59;;;;;;;11.55;2.00;;;31.20;97.10;;;;;;6178412;23;20008;-86
2022/08/03 13:07:13;;;;;;;9.10;1.90;;;31.20;96.60;;;;;;6129928;23;20825;-85
2022/08/03 13:10:03;;;;;;;9.65;2.42;;;31.20;95.80;;;;;;6053671;23;20028;-85
2022/08/03 13:16:49;;;;;;;9.90;3.03;;;31.20;95.70;;;;;;6119037;23;20028;-83
2022/08/03 13:19:15;;;;;;;8.60;1.52;;;31.30;96.70;;;;;;6151978;23;20086;-83
2022/08/03 13:21:41;;;;;;;8.13;1.77;;;31.20;95.70;;;;;;6153226;23;20024;-83
2022/08/03 13:24:07;;;;;;;12.43;2.25;;;31.20;95.40;;;;;;6156088;23;20020;-82
2022/08/03 13:38:04;;;;;;;11.60;1.98;;;31.00;96.10;;;;;;6048479;23;20401;-85
2022/08/03 13:40:31;;;;;;;9.10;2.38;;;30.80;95.50;;;;;;6042157;23;20034;-88
2022/08/03 13:42:57;;;;;;;12.23;2.00;;;30.70;95.50;;;;;;6021190;23;20022;-86
2022/08/03 13:45:48;;;;;;;9.05;2.00;;;30.70;96.10;;;;;;6160398;23;20025;-84
2022/08/03 13:48:14;;;;;;;10.05;1.98;;;30.80;96.90;;;;;;6134545;23;20353;-84
2022/08/03 13:50:52;;;;;;;11.05;2.88;;;31.00;97.30;;;;;;6132563;23;20122;-85
2022/08/03 13:53:18;;;;;;;11.77;1.50;;;30.80;97.10;;;;;;6159762;23;20025;-84
2022/08/03 13:55:43;;;;;;;5.40;1.30;;;30.80;95.60;;;;;;6157437;23;20024;-84